Time;durP1;ratioP1;P1;durP2;ratioP2;P2;SDS_P1;SDS_P2;PMS_P1;PMS_P2;Temp;Humidity;BMP_temperature;BMP_pressure;BME280_temperature;BME280_humidity;BME280_pressure;Samples;Min_cycle;Max_cycle;Signal;HPM_P1;HPM_P2
2021/03/12 00:01:16;;;;;;;7.47;2.10;;;;;;;9.63;61.82;96954.22;8342623;28;20218;-63
2021/03/12 00:05:19;;;;;;;6.67;2.30;;;;;;;9.62;61.91;96970.66;8368590;28;20550;-63
2021/03/12 00:09:21;;;;;;;5.07;2.20;;;;;;;9.58;62.88;96972.59;8368793;28;20203;-63
2021/03/12 00:13:25;;;;;;;7.93;2.43;;;;;;;9.20;62.05;96981.53;8368429;28;20223;-64
2021/03/12 00:17:26;;;;;;;6.53;1.80;;;;;;;9.13;62.74;96974.19;8368032;28;20717;-63
2021/03/12 00:21:28;;;;;;;5.73;2.30;;;;;;;9.31;62.21;96952.53;8367798;28;20208;-63
2021/03/12 00:25:35;;;;;;;5.33;2.30;;;;;;;9.50;62.58;96931.66;8368071;28;20235;-63
2021/03/12 00:29:37;;;;;;;4.73;2.70;;;;;;;9.27;62.94;96932.94;8367703;28;20204;-63
2021/03/12 00:33:38;;;;;;;6.27;2.80;;;;;;;9.36;62.95;96941.91;8367623;28;20203;-64
2021/03/12 00:37:40;;;;;;;7.73;2.23;;;;;;;9.36;62.74;96935.00;8367668;28;20239;-63
2021/03/12 00:41:43;;;;;;;6.00;2.40;;;;;;;9.41;62.45;96934.75;8362160;28;20609;-63
2021/03/12 00:45:47;;;;;;;8.03;2.10;;;;;;;9.49;62.59;96924.81;8334495;28;20215;-63
2021/03/12 00:49:49;;;;;;;6.47;2.43;;;;;;;9.47;62.36;96933.56;8334493;28;20209;-63
2021/03/12 00:53:50;;;;;;;7.00;2.00;;;;;;;9.24;61.79;96937.44;8334243;28;20561;-63
2021/03/12 00:57:53;;;;;;;4.60;1.67;;;;;;;9.33;61.67;96944.69;8333996;28;20228;-63
2021/03/12 01:01:55;;;;;;;5.50;2.10;;;;;;;9.15;61.38;96954.28;8332636;28;20200;-63
2021/03/12 01:05:57;;;;;;;6.10;2.03;;;;;;;9.05;62.28;96978.94;8333487;28;20828;-63
2021/03/12 01:09:59;;;;;;;5.80;2.03;;;;;;;9.15;61.25;96993.03;8333871;28;20616;-63
2021/03/12 01:14:03;;;;;;;6.83;1.83;;;;;;;9.29;61.26;97037.03;8333158;28;20684;-63
2021/03/12 01:18:05;;;;;;;5.97;1.30;;;;;;;7.66;60.26;97112.22;8333421;28;20691;-63
2021/03/12 01:22:07;;;;;;;0.63;0.40;;;;;;;7.42;58.90;97078.09;8333147;28;20209;-62
2021/03/12 01:26:09;;;;;;;0.70;0.50;;;;;;;7.36;59.57;97063.75;8332961;28;20204;-63
2021/03/12 01:30:17;;;;;;;0.93;0.50;;;;;;;7.44;59.85;97053.97;8332584;28;20209;-62
2021/03/12 01:34:20;;;;;;;1.03;0.50;;;;;;;7.64;58.31;97029.00;8332194;28;20252;-63
2021/03/12 01:38:21;;;;;;;1.73;0.50;;;;;;;7.50;59.21;97021.94;8332772;28;20224;-63
2021/03/12 01:42:23;;;;;;;1.93;0.80;;;;;;;7.63;59.34;96999.81;8332873;28;20216;-64
2021/03/12 01:46:26;;;;;;;1.40;0.63;;;;;;;7.70;58.71;97004.69;8331862;28;20683;-63
2021/03/12 01:50:28;;;;;;;3.00;0.63;;;;;;;7.79;59.15;97024.84;8331759;28;20315;-63
2021/03/12 01:54:33;;;;;;;2.23;0.80;;;;;;;7.68;59.89;97024.53;8332072;28;20238;-64
2021/03/12 01:58:35;;;;;;;2.67;0.60;;;;;;;7.47;60.04;97027.22;8331374;28;20232;-63
2021/03/12 02:02:39;;;;;;;2.50;0.93;;;;;;;7.54;60.35;97046.63;8331470;28;20511;-65
2021/03/12 02:06:41;;;;;;;2.37;1.00;;;;;;;7.52;60.06;97051.03;8332046;28;20287;-63
2021/03/12 02:10:43;;;;;;;3.40;1.20;;;;;;;7.47;60.27;97058.13;8331055;28;20224;-64
2021/03/12 02:14:51;;;;;;;4.80;1.00;;;;;;;7.51;60.07;97053.69;8331445;28;20262;-63
2021/03/12 02:19:00;;;;;;;1.80;0.80;;;;;;;7.31;60.58;97055.44;8330757;28;20239;-65
2021/03/12 02:23:11;;;;;;;2.43;0.90;;;;;;;7.26;60.43;97077.16;8330896;28;20288;-63
2021/03/12 02:27:15;;;;;;;2.37;1.00;;;;;;;7.13;61.32;97076.84;8330642;28;20216;-63
2021/03/12 02:31:16;;;;;;;3.57;0.90;;;;;;;7.01;61.44;97084.22;8330655;28;20212;-63
2021/03/12 02:35:21;;;;;;;3.57;1.00;;;;;;;7.17;60.14;97068.09;8330254;28;20228;-63
2021/03/12 02:39:25;;;;;;;2.03;0.90;;;;;;;7.27;60.02;97084.78;8330290;28;20232;-63
2021/03/12 02:43:28;;;;;;;5.80;1.23;;;;;;;6.99;60.37;97096.31;8330848;28;20200;-63
2021/03/12 02:47:31;;;;;;;3.37;1.17;;;;;;;7.21;60.02;97115.97;8330817;28;20209;-64
2021/03/12 02:51:33;;;;;;;4.27;0.87;;;;;;;7.20;60.03;97114.31;8330702;28;20208;-63
2021/03/12 02:55:36;;;;;;;2.63;0.90;;;;;;;7.11;60.29;97110.38;8330025;28;20215;-63
2021/03/12 02:59:39;;;;;;;2.43;0.80;;;;;;;6.93;60.02;97117.19;8329773;28;20606;-63
2021/03/12 03:03:42;;;;;;;3.13;1.00;;;;;;;6.95;60.13;97104.22;8329869;28;20200;-63
2021/03/12 03:07:46;;;;;;;2.93;1.00;;;;;;;7.02;59.81;97124.50;8329717;28;20234;-63
2021/03/12 03:11:48;;;;;;;3.83;1.03;;;;;;;6.96;59.75;97122.19;8329331;28;20229;-63
2021/03/12 03:15:51;;;;;;;2.10;0.70;;;;;;;7.08;59.99;97120.81;8329624;28;20216;-63
2021/03/12 03:19:53;;;;;;;3.50;0.90;;;;;;;7.10;59.57;97119.03;8328967;28;20641;-63
2021/03/12 03:23:55;;;;;;;2.23;0.97;;;;;;;7.08;60.37;97132.84;8328683;28;20200;-63
2021/03/12 03:27:57;;;;;;;2.83;1.10;;;;;;;7.15;60.16;97142.00;8328868;28;20208;-64
2021/03/12 03:32:00;;;;;;;3.47;1.10;;;;;;;7.10;60.14;97144.78;8328935;28;20608;-64
2021/03/12 03:36:03;;;;;;;2.30;0.97;;;;;;;7.31;59.63;97158.47;8329160;28;20228;-64
2021/03/12 03:40:07;;;;;;;1.83;0.90;;;;;;;7.14;59.87;97166.06;8329036;28;20655;-64
2021/03/12 03:44:09;;;;;;;1.47;0.80;;;;;;;7.21;59.68;97164.91;8329107;28;20209;-64
2021/03/12 03:48:13;;;;;;;3.40;1.20;;;;;;;7.14;59.17;97166.06;8329463;28;20204;-64
2021/03/12 03:52:17;;;;;;;5.17;1.20;;;;;;;7.29;58.93;97175.72;8329130;28;20299;-64
2021/03/12 03:56:19;;;;;;;8.67;1.43;;;;;;;7.02;59.90;97175.97;8328692;28;20217;-63
2021/03/12 04:00:21;;;;;;;5.13;1.30;;;;;;;7.17;59.60;97174.50;8328799;28;20645;-63
2021/03/12 04:04:24;;;;;;;7.07;1.33;;;;;;;7.38;59.46;97183.00;8328914;28;20235;-63
2021/03/12 04:08:26;;;;;;;8.00;1.50;;;;;;;7.31;59.65;97191.94;8328687;28;20524;-64
2021/03/12 04:12:28;;;;;;;5.03;1.40;;;;;;;7.42;59.22;97202.63;8328582;28;20578;-63
2021/03/12 04:16:31;;;;;;;4.47;1.53;;;;;;;7.41;59.25;97193.19;8328621;28;20204;-63
2021/03/12 04:20:33;;;;;;;5.00;1.63;;;;;;;7.30;59.19;97212.59;8328273;28;20228;-63
2021/03/12 04:24:36;;;;;;;5.27;1.43;;;;;;;7.39;59.19;97214.78;8328548;28;20205;-63
2021/03/12 04:28:38;;;;;;;4.40;1.60;;;;;;;7.30;58.86;97205.72;8329607;28;20208;-63
2021/03/12 04:32:40;;;;;;;4.17;1.33;;;;;;;7.28;59.33;97194.63;8328330;28;20216;-63
2021/03/12 04:36:43;;;;;;;6.30;1.43;;;;;;;7.21;59.07;97212.06;8330500;28;20236;-63
2021/03/12 04:40:46;;;;;;;5.73;1.30;;;;;;;7.18;59.29;97207.06;8335146;28;20228;-63
2021/03/12 04:44:48;;;;;;;5.03;1.70;;;;;;;7.02;59.45;97216.34;8334476;28;20205;-63
2021/03/12 04:48:51;;;;;;;4.90;1.70;;;;;;;6.98;59.45;97213.06;8334224;28;20212;-63
2021/03/12 04:52:55;;;;;;;6.17;1.70;;;;;;;6.99;59.49;97224.22;8335515;28;20205;-63
2021/03/12 04:56:57;;;;;;;4.97;1.70;;;;;;;7.04;59.29;97223.13;8334810;28;20208;-63
2021/03/12 05:01:00;;;;;;;3.63;1.50;;;;;;;7.03;59.03;97236.06;8335279;28;20232;-63
2021/03/12 05:05:04;;;;;;;4.77;1.67;;;;;;;7.08;59.34;97241.81;8333853;28;20213;-63
2021/03/12 05:09:09;;;;;;;4.90;1.57;;;;;;;6.99;59.60;97261.09;8333818;28;20227;-63
2021/03/12 05:13:11;;;;;;;3.93;1.37;;;;;;;7.14;59.37;97253.59;8334812;28;20622;-63
2021/03/12 05:17:13;;;;;;;6.43;1.70;;;;;;;7.19;59.20;97267.13;8333172;28;20208;-63
2021/03/12 05:21:15;;;;;;;7.80;1.87;;;;;;;7.18;59.21;97289.47;8335065;28;20239;-63
2021/03/12 05:25:18;;;;;;;7.03;1.80;;;;;;;7.28;58.84;97297.66;8334839;28;20266;-63
2021/03/12 05:29:20;;;;;;;5.70;1.70;;;;;;;7.19;58.97;97310.91;8335037;28;20323;-63
2021/03/12 05:33:21;;;;;;;5.33;1.77;;;;;;;7.35;58.44;97309.38;8333621;28;20209;-63
2021/03/12 05:37:23;;;;;;;3.87;1.50;;;;;;;7.36;58.11;97326.50;8334641;28;20225;-63
2021/03/12 05:41:26;;;;;;;5.60;1.73;;;;;;;7.28;57.73;97335.47;8334061;28;20204;-63
2021/03/12 05:45:28;;;;;;;5.00;1.73;;;;;;;7.23;58.11;97336.50;8334796;28;20209;-63
2021/03/12 05:49:30;;;;;;;4.37;1.70;;;;;;;7.13;57.81;97330.03;8332818;28;20212;-63
2021/03/12 05:53:32;;;;;;;5.07;1.70;;;;;;;7.25;56.88;97331.25;8332768;28;20200;-63
2021/03/12 05:57:35;;;;;;;4.97;1.63;;;;;;;7.28;56.41;97341.44;8332346;28;20228;-63
2021/03/12 06:01:37;;;;;;;8.73;2.07;;;;;;;7.35;56.57;97348.03;8331865;28;20216;-63
2021/03/12 06:05:39;;;;;;;7.73;1.70;;;;;;;7.18;56.71;97347.88;8332058;28;20242;-63
2021/03/12 06:09:42;;;;;;;6.80;2.00;;;;;;;7.45;55.63;97353.63;8332240;28;20602;-63
2021/03/12 06:13:52;;;;;;;6.07;1.80;;;;;;;8.03;54.43;97360.59;8331992;28;20205;-63
2021/03/12 06:17:53;;;;;;;7.70;1.90;;;;;;;8.77;52.39;97359.91;8332309;28;20236;-63
2021/03/12 06:21:55;;;;;;;6.97;1.97;;;;;;;9.05;50.80;97363.78;8332435;28;20283;-63
2021/03/12 06:25:57;;;;;;;4.70;1.53;;;;;;;9.70;48.91;97366.63;8331303;28;20247;-63
2021/03/12 06:30:01;;;;;;;5.67;1.90;;;;;;;10.10;48.46;97372.34;8330103;28;20208;-63
2021/03/12 06:34:13;;;;;;;6.60;2.60;;;;;;;10.16;48.13;97380.59;8331098;28;20243;-63
2021/03/12 06:38:14;;;;;;;8.87;1.90;;;;;;;10.50;46.38;97381.47;8334240;28;20262;-63
2021/03/12 06:42:16;;;;;;;6.60;1.93;;;;;;;10.65;46.08;97392.75;8300166;28;20697;-64
2021/03/12 06:46:20;;;;;;;5.77;1.87;;;;;;;10.66;45.49;97402.22;8325160;28;20204;-63
2021/03/12 06:50:22;;;;;;;6.30;2.17;;;;;;;9.74;47.49;97412.09;8335941;28;20208;-63
2021/03/12 06:54:26;;;;;;;5.03;2.40;;;;;;;10.14;47.84;97415.25;8335776;28;20212;-63
2021/03/12 06:58:28;;;;;;;7.10;1.70;;;;;;;9.73;48.05;97425.94;8335086;28;20233;-64
2021/03/12 07:02:31;;;;;;;4.20;2.20;;;;;;;9.48;48.47;97418.53;8304398;28;20373;-65
2021/03/12 07:06:43;;;;;;;6.67;1.90;;;;;;;9.11;49.23;97428.06;8346447;28;20209;-65
2021/03/12 07:10:44;;;;;;;6.77;2.03;;;;;;;9.23;49.10;97442.97;8344425;28;20315;-64
2021/03/12 07:14:46;;;;;;;3.87;1.60;;;;;;;8.95;50.06;97440.84;8362271;28;20223;-63
2021/03/12 07:18:51;;;;;;;5.97;1.87;;;;;;;8.83;50.66;97449.16;8363317;28;20267;-64
2021/03/12 07:22:53;;;;;;;7.03;2.17;;;;;;;9.22;49.50;97464.56;8362908;28;20200;-64
2021/03/12 07:26:58;;;;;;;6.17;1.80;;;;;;;8.93;49.41;97460.72;8362236;28;20207;-64
2021/03/12 07:31:03;;;;;;;19.30;2.30;;;;;;;11.39;63.69;97486.38;8363103;28;20214;-62
2021/03/12 07:35:07;;;;;;;13.80;2.33;;;;;;;12.14;55.51;97487.31;8362156;28;20227;-59
2021/03/12 07:39:09;;;;;;;6.23;1.93;;;;;;;10.88;46.73;97483.94;8362340;28;20334;-60
2021/03/12 07:43:12;;;;;;;6.77;2.13;;;;;;;10.00;47.88;97503.91;8362836;28;20208;-60
2021/03/12 07:47:18;;;;;;;7.63;2.37;;;;;;;9.89;48.60;97503.59;8361996;28;20674;-59
2021/03/12 07:51:21;;;;;;;7.50;2.43;;;;;;;9.51;49.40;97511.44;8363272;28;20199;-60
2021/03/12 07:55:59;;;;;;;6.87;2.20;;;;;;;9.66;48.70;97515.88;8363027;28;20227;-60
2021/03/12 08:00:01;;;;;;;7.07;2.23;;;;;;;9.48;49.97;97532.25;8363385;28;20215;-60
2021/03/12 08:04:27;;;;;;;5.73;1.80;;;;;;;9.25;50.30;97525.56;8349647;28;20590;-60
2021/03/12 08:08:33;;;;;;;8.03;2.33;;;;;;;9.34;50.34;97530.31;8329275;28;20639;-59
2021/03/12 08:12:37;;;;;;;7.20;2.10;;;;;;;9.16;50.43;97529.44;8333586;28;20224;-59
2021/03/12 08:17:27;;;;;;;7.47;2.67;;;;;;;9.23;50.21;97540.31;8336093;28;20208;-60
2021/03/12 08:21:35;;;;;;;9.70;2.10;;;;;;;9.35;50.08;97534.59;8234624;28;20269;-59
2021/03/12 08:25:47;;;;;;;6.37;2.27;;;;;;;9.38;50.27;97534.44;8282328;28;20212;-59
2021/03/12 08:29:48;;;;;;;5.83;2.27;;;;;;;9.26;49.74;97535.84;8335478;28;20204;-60
2021/03/12 08:33:50;;;;;;;7.27;2.60;;;;;;;9.30;49.13;97541.72;8335160;28;20264;-61
2021/03/12 08:37:53;;;;;;;13.07;2.40;;;;;;;9.22;49.45;97536.06;8334599;28;20292;-62
2021/03/12 08:41:55;;;;;;;4.87;1.70;;;;;;;9.27;47.41;97541.84;8335414;28;20354;-62
2021/03/12 08:45:58;;;;;;;5.60;1.80;;;;;;;9.48;47.85;97529.69;8334032;28;20209;-62
2021/03/12 08:50:00;;;;;;;9.43;3.20;;;;;;;10.01;45.94;97531.44;8334326;28;20234;-61
2021/03/12 08:54:03;;;;;;;7.07;1.90;;;;;;;10.46;45.08;97534.44;8335564;28;20304;-62
2021/03/12 08:58:14;;;;;;;7.07;2.00;;;;;;;10.01;44.56;97533.19;8335994;28;20382;-61
2021/03/12 09:02:23;;;;;;;17.67;6.63;;;;;;;10.20;45.06;97538.31;8334780;28;20208;-62
2021/03/12 09:06:28;;;;;;;27.77;7.40;;;;;;;9.83;44.83;97530.59;8335010;28;20201;-62
2021/03/12 09:10:41;;;;;;;22.60;12.50;;;;;;;9.81;44.63;97541.94;8335737;28;20251;-61
2021/03/12 09:14:44;;;;;;;7.00;3.80;;;;;;;11.23;41.68;97533.88;8334103;28;20212;-62
2021/03/12 09:18:52;;;;;;;7.17;3.23;;;;;;;10.73;42.61;97532.19;8335916;28;20331;-61
2021/03/12 09:22:55;;;;;;;7.23;1.60;;;;;;;10.28;43.50;97529.25;8333395;28;20204;-63
2021/03/12 09:26:57;;;;;;;7.33;4.40;;;;;;;11.96;39.25;97540.31;8333672;28;20220;-62
2021/03/12 09:31:01;;;;;;;20.13;2.70;;;;;;;13.18;53.61;97524.38;8335542;28;20481;-63
2021/03/12 09:35:15;;;;;;;15.47;3.20;;;;;;;14.59;45.00;97534.50;8335681;28;20254;-62
2021/03/12 09:39:20;;;;;;;14.43;2.70;;;;;;;14.40;44.42;97524.44;8334624;28;20220;-62
2021/03/12 09:43:22;;;;;;;10.57;2.47;;;;;;;13.69;43.51;97526.44;8334474;28;20216;-62
2021/03/12 09:47:25;;;;;;;21.87;4.60;;;;;;;14.31;42.46;97525.88;8333626;28;20208;-62
2021/03/12 09:51:30;;;;;;;17.30;3.93;;;;;;;14.13;40.54;97527.94;8333665;28;20213;-63
2021/03/12 09:55:34;;;;;;;7.53;3.60;;;;;;;13.80;36.67;97529.22;8333305;28;20235;-64
2021/03/12 09:59:37;;;;;;;6.20;2.40;;;;;;;12.74;38.11;97532.28;8334748;28;20704;-63
2021/03/12 10:03:56;;;;;;;16.50;1.80;;;;;;;13.97;36.52;97524.66;8335533;28;20235;-63
2021/03/12 10:08:03;;;;;;;11.07;2.70;;;;;;;13.76;37.34;97522.50;8333680;28;20209;-63
2021/03/12 10:12:06;;;;;;;6.43;2.00;;;;;;;12.99;38.04;97524.69;8332455;28;20278;-61
2021/03/12 10:16:12;;;;;;;6.67;1.70;;;;;;;12.35;37.51;97515.56;8334043;28;20212;-61
2021/03/12 10:20:26;;;;;;;5.33;2.00;;;;;;;11.95;37.96;97505.72;8332171;28;20220;-61
2021/03/12 10:24:28;;;;;;;5.10;1.60;;;;;;;12.72;36.27;97490.84;8333452;28;20341;-61
2021/03/12 10:28:30;;;;;;;3.93;1.50;;;;;;;12.55;38.14;97499.63;8332171;28;20516;-61
2021/03/12 10:32:37;;;;;;;6.23;1.70;;;;;;;12.83;37.91;97487.56;8332493;28;20231;-61
2021/03/12 10:36:40;;;;;;;8.40;3.83;;;;;;;12.79;36.23;97483.47;8332621;28;20236;-61
2021/03/12 10:41:04;;;;;;;6.93;2.40;;;;;;;12.95;36.55;97486.81;8331563;28;20259;-61
2021/03/12 10:45:07;;;;;;;3.73;1.50;;;;;;;13.06;36.60;97481.81;8333256;28;20625;-62
2021/03/12 10:49:09;;;;;;;6.07;1.43;;;;;;;13.64;35.51;97466.88;8332391;28;20208;-64
2021/03/12 10:53:14;;;;;;;4.93;1.70;;;;;;;13.88;35.34;97472.28;8331741;28;20204;-64
2021/03/12 10:57:16;;;;;;;4.83;1.70;;;;;;;13.80;35.84;97479.75;8332455;28;20216;-65
2021/03/12 11:01:20;;;;;;;5.73;2.10;;;;;;;13.72;36.33;97482.00;8331905;28;20232;-65
2021/03/12 11:05:22;;;;;;;5.13;1.50;;;;;;;13.09;36.66;97463.41;8332860;28;20209;-65
2021/03/12 11:09:25;;;;;;;5.20;2.07;;;;;;;13.37;37.00;97469.50;8331338;28;20208;-65
2021/03/12 11:13:27;;;;;;;4.57;1.80;;;;;;;13.92;36.13;97472.91;8330951;28;20228;-65
2021/03/12 11:17:29;;;;;;;4.70;1.70;;;;;;;12.99;37.21;97449.31;8330805;28;20219;-65
2021/03/12 11:21:44;;;;;;;6.27;1.70;;;;;;;12.46;38.47;97469.84;8331975;28;20270;-65
2021/03/12 11:25:47;;;;;;;6.90;2.40;;;;;;;11.77;45.08;97486.00;8331561;28;20212;-65
2021/03/12 11:29:50;;;;;;;3.77;1.53;;;;;;;11.90;48.15;97474.03;8330107;28;20223;-65
2021/03/12 11:33:53;;;;;;;5.57;1.90;;;;;;;12.85;46.90;97457.13;8330079;28;20239;-65
2021/03/12 11:37:55;;;;;;;5.50;2.00;;;;;;;12.80;46.68;97447.03;8329870;28;20247;-62
2021/03/12 11:41:59;;;;;;;4.43;1.70;;;;;;;13.30;45.29;97439.59;8330515;28;20254;-65
2021/03/12 11:46:00;;;;;;;6.00;1.90;;;;;;;12.97;44.48;97435.59;8333786;28;20215;-64
2021/03/12 11:50:05;;;;;;;5.07;2.20;;;;;;;12.58;44.68;97437.09;8340567;28;20220;-64
2021/03/12 11:54:07;;;;;;;7.20;2.50;;;;;;;12.68;43.53;97432.19;8341712;28;20668;-65
2021/03/12 11:58:10;;;;;;;6.70;1.80;;;;;;;12.56;42.96;97418.19;8341182;28;20551;-64
2021/03/12 12:02:12;;;;;;;3.83;1.40;;;;;;;12.56;41.75;97417.34;8342127;28;20294;-64
2021/03/12 12:06:15;;;;;;;5.07;1.80;;;;;;;12.90;41.22;97408.31;8338790;28;20200;-65
2021/03/12 12:10:18;;;;;;;8.43;1.60;;;;;;;12.21;41.37;97402.97;8339680;28;20232;-64
2021/03/12 12:14:21;;;;;;;5.43;1.77;;;;;;;11.98;41.33;97406.13;8341089;28;20299;-64
2021/03/12 12:18:23;;;;;;;6.77;2.03;;;;;;;11.73;41.22;97405.75;8340737;28;20702;-64
2021/03/12 12:22:35;;;;;;;9.43;2.07;;;;;;;11.45;41.29;97411.66;8341223;28;20260;-65
2021/03/12 12:26:37;;;;;;;3.40;1.50;;;;;;;11.54;41.05;97416.34;8339459;28;20212;-65
2021/03/12 12:30:40;;;;;;;4.67;1.67;;;;;;;12.36;40.39;97423.75;8339427;28;20211;-64
2021/03/12 12:34:43;;;;;;;6.80;2.73;;;;;;;12.32;40.45;97410.94;8340278;28;20688;-64
2021/03/12 12:38:45;;;;;;;6.87;1.70;;;;;;;12.29;40.52;97399.91;8340353;28;20282;-64
2021/03/12 12:42:47;;;;;;;6.57;2.00;;;;;;;12.44;40.55;97409.38;8339703;28;20208;-64
2021/03/12 12:46:50;;;;;;;7.57;1.77;;;;;;;12.12;40.96;97400.91;8341359;28;20200;-62
2021/03/12 12:50:52;;;;;;;5.87;2.20;;;;;;;12.54;40.81;97407.03;8340691;28;20212;-62
2021/03/12 12:54:53;;;;;;;6.40;2.03;;;;;;;12.72;40.74;97399.91;8339535;28;20212;-62
2021/03/12 12:58:57;;;;;;;8.67;1.80;;;;;;;12.28;40.33;97393.03;8335013;28;20231;-62
2021/03/12 13:03:00;;;;;;;6.87;1.97;;;;;;;12.28;40.41;97380.06;8332245;28;20204;-62
2021/03/12 13:07:02;;;;;;;7.37;2.00;;;;;;;13.21;39.00;97369.97;8336245;28;20258;-62
2021/03/12 13:11:05;;;;;;;5.77;1.97;;;;;;;13.23;38.07;97379.34;8333705;28;20224;-62
2021/03/12 13:15:08;;;;;;;9.30;2.30;;;;;;;13.01;36.67;97356.47;8333781;28;20221;-63
2021/03/12 13:19:11;;;;;;;5.77;1.70;;;;;;;13.38;36.27;97348.91;8333591;28;20642;-62
2021/03/12 13:23:16;;;;;;;8.77;2.60;;;;;;;13.73;33.59;97339.72;8334851;28;20288;-62
2021/03/12 13:27:18;;;;;;;7.40;2.17;;;;;;;13.81;32.78;97338.28;8335206;28;20589;-62
2021/03/12 13:31:20;;;;;;;7.87;2.70;;;;;;;14.01;33.07;97355.16;8333447;28;20216;-63
2021/03/12 13:35:22;;;;;;;4.80;1.60;;;;;;;13.96;32.43;97340.78;8331655;28;20251;-62
2021/03/12 13:39:24;;;;;;;4.20;1.50;;;;;;;14.15;32.52;97337.75;8333705;28;20236;-62
2021/03/12 13:43:29;;;;;;;5.07;1.63;;;;;;;13.91;32.77;97328.06;8333583;28;20346;-62
2021/03/12 13:47:31;;;;;;;5.97;2.10;;;;;;;14.17;31.77;97330.66;8334080;28;20546;-61
2021/03/12 13:51:34;;;;;;;6.20;1.70;;;;;;;14.20;31.15;97322.63;8333347;28;20247;-61
2021/03/12 13:55:37;;;;;;;4.60;1.60;;;;;;;14.00;32.10;97317.03;8332544;28;20254;-62
2021/03/12 13:59:39;;;;;;;10.03;2.13;;;;;;;15.33;41.49;97334.59;8332778;28;20235;-63
2021/03/12 14:03:41;;;;;;;9.63;1.90;;;;;;;15.08;40.38;97319.06;8333328;28;20652;-64
2021/03/12 14:07:44;;;;;;;7.13;2.13;;;;;;;15.19;38.54;97321.72;8333292;28;20548;-60
2021/03/12 14:11:47;;;;;;;11.30;2.53;;;;;;;15.24;39.05;97320.44;8331998;28;20228;-60
2021/03/12 14:15:49;;;;;;;9.10;2.30;;;;;;;15.38;39.23;97329.88;8333483;28;20227;-60
2021/03/12 14:19:50;;;;;;;9.77;2.40;;;;;;;15.33;37.08;97331.16;8333149;28;20228;-61
2021/03/12 14:24:05;;;;;;;7.23;2.40;;;;;;;16.13;35.44;97312.94;8332965;28;20519;-61
2021/03/12 14:28:07;;;;;;;6.97;2.00;;;;;;;16.45;36.56;97304.38;8333148;28;20213;-60
2021/03/12 14:32:09;;;;;;;7.17;2.00;;;;;;;16.35;33.41;97298.19;8331910;28;20212;-58
2021/03/12 14:36:26;;;;;;;9.70;2.00;;;;;;;16.60;32.10;97297.06;8333200;28;20236;-59
2021/03/12 14:40:28;;;;;;;6.20;2.13;;;;;;;16.18;31.72;97291.66;8330903;28;20235;-59
2021/03/12 14:44:31;;;;;;;7.47;2.00;;;;;;;16.28;32.17;97287.41;8330900;28;20231;-59
2021/03/12 14:48:33;;;;;;;9.67;2.27;;;;;;;15.80;31.92;97296.31;8332288;28;20545;-60
2021/03/12 14:52:35;;;;;;;7.10;2.10;;;;;;;15.59;33.28;97290.03;8330838;28;20683;-59
2021/03/12 14:56:40;;;;;;;9.57;2.40;;;;;;;16.19;31.69;97277.66;8331343;28;20598;-59
2021/03/12 15:00:42;;;;;;;8.47;2.17;;;;;;;15.38;29.61;97272.47;8328066;28;20695;-60
2021/03/12 15:04:45;;;;;;;12.93;2.67;;;;;;;15.67;33.42;97276.41;8330756;28;20211;-58
2021/03/12 15:08:47;;;;;;;11.00;2.33;;;;;;;15.37;29.93;97268.19;8329298;28;20208;-58
2021/03/12 15:12:50;;;;;;;10.97;2.10;;;;;;;15.16;29.95;97272.41;8331102;28;20220;-59
2021/03/12 15:16:52;;;;;;;13.93;2.77;;;;;;;15.45;31.18;97280.66;8329720;28;20215;-60
2021/03/12 15:20:54;;;;;;;10.73;2.03;;;;;;;15.12;28.93;97270.97;8330497;28;20630;-59
2021/03/12 15:24:56;;;;;;;7.20;2.00;;;;;;;14.87;30.74;97272.78;8326395;28;20228;-59
2021/03/12 15:28:58;;;;;;;9.23;2.10;;;;;;;14.94;32.44;97257.50;8328974;28;20204;-61
2021/03/12 15:33:00;;;;;;;5.63;2.07;;;;;;;15.48;36.21;97259.56;8328734;28;20236;-60
2021/03/12 15:37:03;;;;;;;6.10;1.90;;;;;;;15.22;34.44;97264.94;8328265;28;20255;-64
2021/03/12 15:41:05;;;;;;;6.30;1.87;;;;;;;15.08;28.60;97251.25;8329591;28;20239;-62
2021/03/12 15:45:10;;;;;;;8.07;2.20;;;;;;;14.42;29.00;97243.84;8327843;28;20208;-62
2021/03/12 15:49:12;;;;;;;8.57;2.43;;;;;;;13.94;29.88;97241.16;8329779;28;20672;-62
2021/03/12 15:53:13;;;;;;;5.53;2.10;;;;;;;13.98;29.92;97233.00;8329442;28;20211;-62
2021/03/12 15:57:15;;;;;;;5.83;1.80;;;;;;;13.67;30.85;97223.91;8329170;28;20291;-62
2021/03/12 16:01:19;;;;;;;6.30;2.10;;;;;;;13.65;31.33;97220.53;8327950;28;20232;-62
2021/03/12 16:05:21;;;;;;;4.73;1.90;;;;;;;13.08;31.33;97216.56;8327660;28;20239;-63
2021/03/12 16:09:23;;;;;;;4.67;2.17;;;;;;;13.03;31.93;97210.84;8333041;28;20208;-62
2021/03/12 16:13:25;;;;;;;5.33;2.27;;;;;;;12.98;32.37;97215.50;8345167;28;20235;-62
2021/03/12 16:17:27;;;;;;;10.63;2.37;;;;;;;12.65;32.85;97216.78;8362256;28;20271;-61
2021/03/12 16:21:29;;;;;;;6.20;2.60;;;;;;;12.61;33.69;97210.94;8361467;28;20227;-62
2021/03/12 16:25:43;;;;;;;5.77;2.30;;;;;;;12.47;33.22;97206.63;8362270;28;20200;-62
2021/03/12 16:29:45;;;;;;;8.43;2.07;;;;;;;12.31;33.59;97201.56;8363293;28;20739;-62
2021/03/12 16:33:48;;;;;;;6.53;2.13;;;;;;;12.03;34.47;97204.25;8365937;28;20203;-62
2021/03/12 16:37:50;;;;;;;5.33;2.30;;;;;;;11.87;34.73;97196.56;8363113;28;20530;-61
2021/03/12 16:41:54;;;;;;;7.33;2.80;;;;;;;11.85;35.43;97209.63;8335312;28;20235;-61
2021/03/12 16:45:58;;;;;;;7.23;3.20;;;;;;;11.72;35.56;97196.56;8335620;28;20197;-62
2021/03/12 16:50:01;;;;;;;7.30;2.40;;;;;;;11.60;35.86;97192.13;8335379;28;20208;-61
2021/03/12 16:54:03;;;;;;;6.57;2.43;;;;;;;11.54;36.49;97185.56;8333622;28;20227;-62
2021/03/12 16:58:05;;;;;;;7.20;3.03;;;;;;;11.52;37.00;97189.19;8334745;28;20205;-62
2021/03/12 17:02:08;;;;;;;9.00;3.13;;;;;;;11.55;37.04;97196.75;8336145;28;20224;-62
2021/03/12 17:06:12;;;;;;;5.53;2.40;;;;;;;11.35;37.78;97188.41;8335715;28;20205;-61
2021/03/12 17:10:14;;;;;;;7.30;2.90;;;;;;;11.84;36.22;97184.63;8333410;28;20511;-61
2021/03/12 17:14:19;;;;;;;6.50;2.13;;;;;;;11.51;37.53;97185.72;8332348;28;20205;-62
2021/03/12 17:18:21;;;;;;;7.20;2.30;;;;;;;11.18;37.97;97196.38;8334872;28;20633;-62
2021/03/12 17:22:24;;;;;;;10.00;2.23;;;;;;;11.19;37.85;97192.00;8334239;28;20228;-62
2021/03/12 17:26:32;;;;;;;9.90;2.67;;;;;;;11.21;38.18;97195.34;8334770;28;20654;-62
2021/03/12 17:30:34;;;;;;;8.13;2.43;;;;;;;11.22;38.16;97197.84;8334780;28;20235;-63
2021/03/12 17:34:36;;;;;;;6.73;2.93;;;;;;;11.14;38.10;97187.94;8334272;28;20233;-61
2021/03/12 17:38:39;;;;;;;8.73;3.43;;;;;;;10.93;38.85;97191.78;8333824;28;20637;-62
2021/03/12 17:42:41;;;;;;;5.13;2.40;;;;;;;11.03;38.42;97192.09;8332965;28;20553;-62
2021/03/12 17:46:43;;;;;;;6.83;2.77;;;;;;;11.06;38.46;97189.28;8333747;28;20204;-63
2021/03/12 17:50:46;;;;;;;6.50;2.70;;;;;;;11.02;38.57;97185.22;8333937;28;20204;-62
2021/03/12 17:54:48;;;;;;;8.50;2.37;;;;;;;10.94;38.53;97186.50;8333389;28;20667;-62
2021/03/12 17:59:07;;;;;;;7.60;2.40;;;;;;;10.82;38.88;97187.22;8333617;28;20220;-62
2021/03/12 18:03:09;;;;;;;5.23;2.23;;;;;;;10.80;38.92;97198.59;8333879;28;20242;-62
2021/03/12 18:07:11;;;;;;;7.17;2.17;;;;;;;10.71;39.07;97185.25;8334131;28;20579;-62
2021/03/12 18:11:14;;;;;;;7.10;2.43;;;;;;;10.70;39.17;97193.94;8331958;28;20673;-61
2021/03/12 18:15:16;;;;;;;8.30;2.47;;;;;;;10.73;39.45;97178.22;8332977;28;20211;-61
2021/03/12 18:19:18;;;;;;;4.80;2.70;;;;;;;10.69;39.19;97192.25;8333990;28;20286;-61
2021/03/12 18:23:20;;;;;;;10.10;4.17;;;;;;;10.61;39.30;97181.53;8360716;28;20208;-62
2021/03/12 18:27:23;;;;;;;9.57;5.37;;;;;;;10.68;39.49;97169.03;8342785;28;20208;-61
2021/03/12 18:31:25;;;;;;;13.00;7.80;;;;;;;10.64;39.38;97171.00;8349752;28;20254;-61
2021/03/12 18:35:27;;;;;;;10.50;6.73;;;;;;;10.65;39.58;97182.19;8365534;28;20231;-62
2021/03/12 18:39:28;;;;;;;5.40;3.40;;;;;;;10.55;39.73;97176.69;8366722;28;20235;-61
2021/03/12 18:43:31;;;;;;;8.33;3.40;;;;;;;10.39;40.21;97174.13;8364708;28;20211;-62
2021/03/12 18:47:33;;;;;;;6.10;4.00;;;;;;;10.43;40.07;97169.63;8366360;28;20203;-62
2021/03/12 18:51:35;;;;;;;6.50;2.90;;;;;;;10.24;40.42;97172.38;8364853;28;20230;-62
2021/03/12 18:55:37;;;;;;;8.97;3.57;;;;;;;10.13;40.47;97167.81;8364851;28;20206;-62
2021/03/12 18:59:40;;;;;;;8.20;3.10;;;;;;;10.07;40.77;97168.13;8365369;28;20683;-62
2021/03/12 19:03:42;;;;;;;8.53;3.33;;;;;;;10.07;41.00;97166.38;8364332;28;20203;-62
2021/03/12 19:07:44;;;;;;;5.17;2.27;;;;;;;9.98;41.24;97164.28;8330401;28;20232;-62
2021/03/12 19:11:46;;;;;;;5.63;2.83;;;;;;;10.09;41.22;97159.38;8356488;28;20236;-62